Time;durP1;ratioP1;P1;durP2;ratioP2;P2;SDS_P1;SDS_P2;PMS_P1;PMS_P2;Temp;Humidity;BMP_temperature;BMP_pressure;BME280_temperature;BME280_humidity;BME280_pressure;Samples;Min_cycle;Max_cycle;Signal;HPM_P1;HPM_P2
2022/07/20 00:00:16;;;;;;;4.13;1.63;;;;;;;20.32;60.44;100764.94;7400134;19;20018;-47
2022/07/20 00:02:53;;;;;;;6.60;1.60;;;;;;;20.35;60.43;100772.53;7398855;19;20019;-51
2022/07/20 00:05:20;;;;;;;3.85;1.70;;;;;;;20.34;60.11;100770.94;7396163;19;20010;-51
2022/07/20 00:07:48;;;;;;;3.75;1.80;;;;;;;20.25;60.49;100776.22;7401586;19;20014;-51
2022/07/20 00:16:38;;;;;;;1.63;1.25;;;;;;;20.22;59.55;100786.25;7401546;19;20014;-49
2022/07/20 00:23:22;;;;;;;3.70;0.98;;;;;;;20.04;59.34;100791.94;7400345;19;20099;-53
2022/07/20 00:26:26;;;;;;;3.22;1.10;;;;;;;20.03;58.83;100790.34;7401376;19;20006;-53
2022/07/20 00:28:54;;;;;;;2.50;0.98;;;;;;;20.10;58.79;100799.94;7401895;19;20011;-53
2022/07/20 00:31:42;;;;;;;2.97;1.20;;;;;;;20.05;59.08;100792.75;7399325;19;20021;-53
2022/07/20 00:34:29;;;;;;;5.15;1.27;;;;;;;19.99;58.79;100795.16;7398260;19;20483;-50
2022/07/20 00:40:34;;;;;;;2.50;1.40;;;;;;;19.79;59.19;100791.25;7399177;19;20468;-51
2022/07/20 00:43:01;;;;;;;1.75;1.23;;;;;;;19.78;58.66;100800.06;7397276;19;20476;-49
2022/07/20 00:46:15;;;;;;;4.95;1.50;;;;;;;19.69;58.68;100808.94;7397213;19;20460;-49
2022/07/20 00:48:46;;;;;;;4.40;1.00;;;;;;;19.70;59.03;100796.47;7399950;19;20038;-47
2022/07/20 00:51:17;;;;;;;4.65;1.30;;;;;;;19.72;58.35;100802.53;7400809;19;20011;-47
2022/07/20 01:00:30;;;;;;;3.22;0.98;;;;;;;19.65;58.08;100808.13;7400460;19;20018;-49
2022/07/20 01:10:02;;;;;;;4.47;1.38;;;;;;;19.57;58.37;100812.16;7395384;19;20015;-47
2022/07/20 01:12:29;;;;;;;4.38;0.95;;;;;;;19.56;58.30;100816.19;7395362;19;20048;-52
2022/07/20 01:14:57;;;;;;;1.98;0.95;;;;;;;19.53;58.01;100819.81;7400546;19;20045;-47
2022/07/20 01:20:50;;;;;;;2.88;1.17;;;;;;;19.45;58.03;100821.03;7389999;19;20078;-48
2022/07/20 01:23:18;;;;;;;4.45;0.80;;;;;;;19.41;58.10;100823.81;7394425;19;20006;-48
2022/07/20 01:33:20;;;;;;;4.20;0.90;;;;;;;19.41;57.62;100829.44;7396503;19;20014;-51
2022/07/20 01:36:26;;;;;;;4.93;1.05;;;;;;;19.38;57.45;100824.63;7396587;19;20042;-50
2022/07/20 01:43:08;;;;;;;4.95;1.23;;;;;;;19.33;57.35;100838.25;7400916;19;20019;-49
2022/07/20 01:53:19;;;;;;;3.28;0.95;;;;;;;19.19;57.99;100846.69;7396346;19;20361;-50
2022/07/20 02:06:02;;;;;;;4.15;0.93;;;;;;;19.23;57.33;100864.31;7398372;19;20014;-52
2022/07/20 02:08:29;;;;;;;4.82;1.30;;;;;;;19.24;57.82;100861.13;7397118;19;20011;-47
2022/07/20 02:10:57;;;;;;;6.10;1.00;;;;;;;19.29;57.53;100862.72;7396240;19;20352;-49
2022/07/20 02:13:24;;;;;;;5.88;1.02;;;;;;;19.24;57.44;100866.75;7399437;19;20017;-50
2022/07/20 02:18:38;;;;;;;3.67;1.10;;;;;;;19.06;57.59;100865.13;7397285;19;20009;-51
2022/07/20 02:24:47;;;;;;;5.25;1.02;;;;;;;19.06;57.58;100879.16;7395355;19;20017;-51
2022/07/20 02:27:14;;;;;;;3.95;0.80;;;;;;;19.00;57.32;100887.16;7395460;19;20010;-51
2022/07/20 02:29:42;;;;;;;4.10;0.95;;;;;;;18.97;57.53;100887.97;7393503;19;20143;-52
2022/07/20 02:35:35;;;;;;;1.23;0.70;;;;;;;18.85;57.17;100894.75;7401031;19;20491;-51
2022/07/20 02:38:03;;;;;;;4.80;1.58;;;;;;;18.83;57.22;100897.16;7405148;19;20013;-50
2022/07/20 02:40:30;;;;;;;5.20;0.90;;;;;;;18.83;57.45;100901.94;7404946;19;20017;-53
2022/07/20 02:43:19;;;;;;;6.03;1.00;;;;;;;18.84;57.20;100904.38;7401869;19;20019;-48
2022/07/20 03:00:42;;;;;;;2.15;0.75;;;;;;;18.69;57.42;100907.53;7404087;19;20002;-52
2022/07/20 03:03:30;;;;;;;2.63;0.90;;;;;;;18.70;57.27;100909.13;7403208;19;20381;-47
2022/07/20 03:06:00;;;;;;;1.90;0.88;;;;;;;18.67;57.34;100910.72;7405744;19;20349;-51
2022/07/20 03:16:23;;;;;;;3.80;1.00;;;;;;;18.58;57.51;100923.53;7401212;19;20018;-49
2022/07/20 03:18:51;;;;;;;3.95;1.08;;;;;;;18.56;57.00;100918.28;7401623;19;20014;-48
2022/07/20 03:21:19;;;;;;;3.20;0.98;;;;;;;18.56;57.37;100926.72;7398316;19;20006;-54
2022/07/20 03:27:27;;;;;;;4.07;0.77;;;;;;;18.41;57.08;100927.81;7401222;19;20010;-54
2022/07/20 03:29:55;;;;;;;4.55;1.13;;;;;;;18.36;57.64;100942.22;7401853;19;20017;-53
2022/07/20 03:32:23;;;;;;;2.80;1.20;;;;;;;18.33;57.45;100934.59;7397512;19;20074;-51
2022/07/20 03:34:50;;;;;;;2.88;1.10;;;;;;;18.30;57.80;100932.56;7401621;19;20480;-52
2022/07/20 03:41:40;;;;;;;2.70;0.93;;;;;;;18.28;57.43;100937.78;7405199;19;20074;-52
2022/07/20 03:44:27;;;;;;;9.85;2.83;;;;;;;18.29;57.57;100945.00;7396564;19;20007;-53
2022/07/20 03:47:15;;;;;;;6.50;1.50;;;;;;;18.30;57.37;100940.97;7403443;19;20410;-54
2022/07/20 03:50:04;;;;;;;2.28;0.82;;;;;;;18.22;57.76;100950.53;7398450;19;20034;-52
2022/07/20 04:07:34;;;;;;;3.20;1.10;;;;;;;17.93;58.48;100971.16;7400335;19;20477;-52
2022/07/20 04:13:27;;;;;;;2.92;1.00;;;;;;;17.91;58.44;100973.56;7400387;19;20018;-48
2022/07/20 04:15:54;;;;;;;6.80;1.52;;;;;;;17.84;58.60;100974.34;7402307;19;20014;-49
2022/07/20 04:18:22;;;;;;;3.28;1.20;;;;;;;17.72;58.84;100966.22;7403917;19;20074;-48
2022/07/20 04:20:50;;;;;;;3.75;1.20;;;;;;;17.68;58.96;100987.81;7400393;19;20047;-50
2022/07/20 04:23:17;;;;;;;4.13;1.20;;;;;;;17.64;59.07;100982.16;7400301;19;20036;-50
2022/07/20 04:29:31;;;;;;;1.67;1.00;;;;;;;17.65;59.10;100988.56;7397421;19;20015;-50
2022/07/20 04:35:59;;;;;;;3.38;1.13;;;;;;;17.50;59.57;100982.00;7398929;19;20010;-50
2022/07/20 04:46:59;;;;;;;2.92;1.02;;;;;;;17.41;59.59;100995.53;7403289;19;20027;-49
2022/07/20 04:50:20;;;;;;;2.35;0.93;;;;;;;17.39;59.17;100994.31;7395988;19;20014;-52
2022/07/20 04:56:29;;;;;;;2.63;1.00;;;;;;;17.44;59.24;101005.16;7398435;19;20011;-49
2022/07/20 04:58:56;;;;;;;4.55;1.05;;;;;;;17.42;59.10;101008.31;7399241;19;20476;-50
2022/07/20 05:01:24;;;;;;;1.50;1.10;;;;;;;17.46;59.17;101005.56;7397663;19;20018;-52
2022/07/20 05:03:52;;;;;;;2.05;1.13;;;;;;;17.42;59.32;101007.53;7395415;19;20015;-52
2022/07/20 05:06:20;;;;;;;3.60;1.23;;;;;;;17.40;59.52;101013.50;7398153;19;20034;-54
2022/07/20 05:16:13;;;;;;;3.08;0.90;;;;;;;17.44;59.49;101017.16;7397933;19;20011;-53
2022/07/20 05:18:40;;;;;;;2.28;1.00;;;;;;;17.47;58.90;101026.78;7398864;19;20014;-53
2022/07/20 05:21:11;;;;;;;4.00;1.00;;;;;;;17.43;59.48;101025.94;7399898;19;20038;-51
2022/07/20 05:23:38;;;;;;;3.15;1.15;;;;;;;17.44;59.47;101025.56;7397806;19;20006;-48
2022/07/20 05:26:07;;;;;;;2.85;0.90;;;;;;;17.43;59.78;101025.94;7398121;19;20397;-53
2022/07/20 05:28:35;;;;;;;4.40;1.25;;;;;;;17.45;59.80;101034.72;7400597;19;20011;-50
2022/07/20 05:31:02;;;;;;;3.47;1.13;;;;;;;17.49;59.88;101035.59;7399348;19;20351;-49
2022/07/20 05:33:30;;;;;;;2.92;0.95;;;;;;;17.54;59.74;101038.06;7400039;19;20040;-51
2022/07/20 05:43:02;;;;;;;8.18;3.20;;;;;;;17.88;59.40;101047.16;7396103;19;20029;-52
2022/07/20 05:45:29;;;;;;;6.25;1.10;;;;;;;17.94;59.15;101060.44;7397568;19;20010;-53
2022/07/20 05:47:57;;;;;;;2.72;1.00;;;;;;;17.97;59.44;101056.06;7398657;19;20106;-52
2022/07/20 05:50:24;;;;;;;2.67;1.00;;;;;;;17.96;59.25;101054.44;7399893;19;20002;-53
2022/07/20 05:52:52;;;;;;;1.90;0.90;;;;;;;17.98;59.15;101064.06;7397189;19;20014;-52
2022/07/20 05:55:20;;;;;;;2.17;0.90;;;;;;;18.00;59.47;101049.69;7400000;19;20480;-53
2022/07/20 05:57:48;;;;;;;3.35;1.00;;;;;;;18.01;59.64;101056.88;7398090;19;20031;-50
2022/07/20 06:00:16;;;;;;;2.85;1.10;;;;;;;18.02;59.73;101058.50;7399827;19;20349;-48
2022/07/20 06:02:43;;;;;;;2.40;0.98;;;;;;;17.96;59.45;101060.03;7400049;19;20473;-53
2022/07/20 06:05:35;;;;;;;1.25;0.90;;;;;;;17.93;59.89;101066.41;7390283;19;20045;-49
2022/07/20 06:08:03;;;;;;;4.07;1.20;;;;;;;17.94;59.59;101080.06;7396152;19;20367;-51
2022/07/20 06:14:15;;;;;;;4.30;1.08;;;;;;;18.08;59.41;101076.56;7396622;19;20034;-54
2022/07/20 06:17:08;;;;;;;1.80;1.05;;;;;;;18.04;60.15;101076.53;7399698;19;20551;-49
2022/07/20 06:22:58;;;;;;;3.78;1.10;;;;;;;18.11;59.78;101085.00;7391729;19;20489;-50
2022/07/20 06:25:26;;;;;;;3.42;1.00;;;;;;;18.09;60.07;101086.56;7395326;19;20468;-50
2022/07/20 06:27:57;;;;;;;1.70;1.10;;;;;;;18.08;60.10;101091.38;7395750;19;20472;-53
2022/07/20 06:30:24;;;;;;;2.15;0.80;;;;;;;18.13;60.09;101088.22;7397380;19;20011;-53
2022/07/20 06:32:52;;;;;;;2.78;0.73;;;;;;;18.13;60.01;101099.44;7391396;19;20381;-54
2022/07/20 06:35:21;;;;;;;1.45;0.65;;;;;;;18.11;60.19;101095.38;7390545;19;20329;-53
2022/07/20 06:37:49;;;;;;;3.90;1.02;;;;;;;18.11;60.00;101107.41;7393653;19;20015;-53
2022/07/20 06:40:17;;;;;;;1.98;0.43;;;;;;;18.12;59.83;101108.22;7391725;19;20006;-50
2022/07/20 06:43:02;;;;;;;7.22;0.80;;;;;;;18.10;60.25;101107.81;7394877;19;20044;-53
2022/07/20 06:45:29;;;;;;;2.92;0.50;;;;;;;18.04;59.61;101106.53;7389244;19;20015;-52
2022/07/20 06:47:57;;;;;;;0.73;0.45;;;;;;;18.09;59.70;101117.41;7391717;19;20015;-54
2022/07/20 06:50:25;;;;;;;1.15;0.57;;;;;;;18.13;60.14;101133.06;7390716;19;20103;-52
2022/07/20 06:52:52;;;;;;;2.30;0.30;;;;;;;18.19;59.49;101137.09;7390139;19;20472;-51
2022/07/20 06:55:20;;;;;;;1.45;0.35;;;;;;;18.22;59.16;101135.53;7390127;19;20040;-52
2022/07/20 06:57:47;;;;;;;2.65;0.68;;;;;;;18.19;59.01;101130.69;7390658;19;20022;-57
2022/07/20 07:00:15;;;;;;;4.93;0.55;;;;;;;18.17;59.11;101153.50;7392529;19;20092;-53
2022/07/20 07:02:44;;;;;;;0.90;0.55;;;;;;;18.12;58.93;101156.66;7391223;19;20096;-52
2022/07/20 07:05:11;;;;;;;0.45;0.30;;;;;;;18.08;58.93;101146.63;7390515;19;20010;-56
2022/07/20 07:07:40;;;;;;;0.77;0.40;;;;;;;18.03;59.02;101155.38;7390562;19;20025;-54
2022/07/20 07:10:08;;;;;;;1.25;0.25;;;;;;;18.01;58.83;101163.34;7392477;19;20030;-51
2022/07/20 07:12:35;;;;;;;1.48;0.50;;;;;;;17.97;58.32;101159.72;7391494;19;20040;-50
2022/07/20 07:15:03;;;;;;;2.05;0.40;;;;;;;18.04;58.35;101152.19;7393896;19;20044;-49
2022/07/20 07:17:31;;;;;;;0.47;0.20;;;;;;;18.05;57.87;101150.19;7389285;19;20480;-48
2022/07/20 07:19:59;;;;;;;0.82;0.30;;;;;;;18.04;57.95;101145.78;7393241;19;20014;-50
2022/07/20 07:22:27;;;;;;;2.22;0.40;;;;;;;17.90;57.96;101146.44;7399534;19;20022;-53
2022/07/20 07:24:55;;;;;;;2.58;0.30;;;;;;;17.93;57.72;101164.47;7396558;19;20025;-56
2022/07/20 07:27:23;;;;;;;1.50;0.30;;;;;;;17.98;57.86;101164.13;7394484;19;20598;-58
2022/07/20 07:29:50;;;;;;;0.15;0.15;;;;;;;18.08;57.57;101169.03;7397252;19;20021;-55
2022/07/20 07:32:18;;;;;;;0.25;0.22;;;;;;;18.16;57.75;101177.09;7399521;19;20420;-58
2022/07/20 07:42:27;;;;;;;1.90;0.30;;;;;;;18.44;56.67;101176.56;7404757;19;20010;-58
2022/07/20 07:45:15;;;;;;;0.80;0.40;;;;;;;18.48;56.52;101179.44;7402210;19;20078;-58
2022/07/20 07:55:34;;;;;;;0.32;0.20;;;;;;;18.67;56.10;101185.59;7399292;19;20047;-59
2022/07/20 07:58:22;;;;;;;1.25;0.25;;;;;;;18.76;55.92;101183.25;7400311;19;20011;-59
2022/07/20 08:00:50;;;;;;;2.50;0.28;;;;;;;18.80;56.10;101181.28;7403025;19;20006;-58
2022/07/20 08:03:17;;;;;;;0.75;0.38;;;;;;;18.78;55.86;101183.66;7404244;19;20009;-58
2022/07/20 08:05:45;;;;;;;3.15;0.47;;;;;;;18.87;55.44;101197.34;7401481;19;20006;-58
2022/07/20 08:12:36;;;;;;;0.70;0.20;;;;;;;18.79;54.65;101198.50;7399544;19;20011;-58
2022/07/20 08:15:04;;;;;;;1.05;0.40;;;;;;;18.87;55.41;101197.34;7402822;19;20007;-59
2022/07/20 08:25:23;;;;;;;0.40;0.20;;;;;;;19.53;53.92;101215.81;7398615;19;20668;-57
2022/07/20 08:32:09;;;;;;;0.95;0.35;;;;;;;19.68;52.71;101217.47;7401170;19;20006;-55
2022/07/20 08:38:45;;;;;;;0.82;0.10;;;;;;;20.44;51.75;101209.63;7401174;19;20014;-57
2022/07/20 08:45:01;;;;;;;0.45;0.32;;;;;;;21.70;51.05;101218.25;7399167;19;20010;-57
2022/07/20 08:47:30;;;;;;;0.75;0.28;;;;;;;22.36;50.69;101222.75;7399784;19;20366;-55
2022/07/20 08:49:59;;;;;;;0.75;0.17;;;;;;;22.63;49.53;101224.97;7399574;19;20044;-56
2022/07/20 08:52:26;;;;;;;0.52;0.20;;;;;;;22.89;48.80;101215.88;7400284;19;20036;-57
2022/07/20 08:54:53;;;;;;;0.10;0.10;;;;;;;22.95;48.21;101214.22;7400704;19;20380;-57
2022/07/20 08:57:21;;;;;;;1.02;0.25;;;;;;;23.03;47.46;101216.53;7398964;19;20011;-60
2022/07/20 09:07:40;;;;;;;3.30;0.47;;;;;;;22.02;47.71;101224.56;7401375;19;20465;-58
2022/07/20 09:10:34;;;;;;;0.50;0.10;;;;;;;21.80;48.05;101220.22;7401574;19;20031;-58
2022/07/20 09:13:02;;;;;;;0.10;0.10;;;;;;;21.70;48.07;101229.53;7402068;19;20011;-58
2022/07/20 09:19:27;;;;;;;1.13;0.32;;;;;;;21.32;48.74;101234.09;7399617;19;20014;-56
2022/07/20 09:22:01;;;;;;;0.73;0.13;;;;;;;21.21;48.83;101233.31;7398835;19;20015;-55
2022/07/20 09:24:29;;;;;;;1.05;0.30;;;;;;;21.18;48.88;101234.91;7398843;19;20026;-57
2022/07/20 09:30:27;;;;;;;2.10;0.32;;;;;;;21.17;49.10;101232.53;7398937;19;20015;-57
2022/07/20 09:40:45;;;;;;;0.95;0.32;;;;;;;20.92;49.71;101243.78;7398649;19;20472;-57
2022/07/20 09:43:34;;;;;;;0.32;0.22;;;;;;;20.92;49.68;101235.34;7395348;19;20002;-57
2022/07/20 09:49:34;;;;;;;0.57;0.20;;;;;;;21.02;50.05;101245.00;7397254;19;20010;-57
2022/07/20 10:03:01;;;;;;;1.73;0.55;;;;;;;21.40;49.91;101252.56;7400696;19;20471;-57
2022/07/20 10:05:49;;;;;;;1.48;0.30;;;;;;;21.55;49.52;101259.00;7397187;19;20007;-57
2022/07/20 10:08:37;;;;;;;1.15;0.38;;;;;;;21.64;49.42;101257.34;7397754;19;20332;-55
2022/07/20 10:18:37;;;;;;;1.45;0.15;;;;;;;21.62;49.61;101256.13;7395324;19;20014;-58
2022/07/20 10:25:12;;;;;;;0.70;0.63;;;;;;;22.04;48.87;101275.72;7391012;19;20006;-55
2022/07/20 10:27:40;;;;;;;2.33;0.22;;;;;;;22.57;49.02;101266.13;7395863;19;20007;-57
2022/07/20 10:30:28;;;;;;;1.70;0.28;;;;;;;22.76;48.36;101274.06;7400811;19;20021;-58
2022/07/20 10:37:26;;;;;;;0.45;0.30;;;;;;;23.48;46.26;101282.25;7399323;19;20008;-59
2022/07/20 10:40:20;;;;;;;1.30;0.30;;;;;;;23.31;45.33;101283.25;7399116;19;20011;-56
2022/07/20 10:46:59;;;;;;;1.65;0.80;;;;;;;22.74;46.24;101274.47;7398462;19;20034;-55
2022/07/20 10:53:48;;;;;;;3.15;2.63;;;;;;;23.38;45.82;101288.84;7400161;19;20512;-57
2022/07/20 11:04:06;;;;;;;3.50;0.43;;;;;;;23.43;45.44;101279.91;7400339;19;20014;-57
2022/07/20 11:10:23;;;;;;;2.45;0.40;;;;;;;23.60;45.20;101287.41;7402464;19;20493;-59
2022/07/20 11:13:05;;;;;;;2.90;1.80;;;;;;;23.61;45.05;101293.84;7404100;19;20015;-56
2022/07/20 11:15:41;;;;;;;1.75;0.32;;;;;;;23.44;45.77;101301.31;7403332;19;20015;-58
2022/07/20 11:18:11;;;;;;;17.45;1.98;;;;;;;23.20;46.16;101299.50;7403056;19;20013;-57
2022/07/20 11:20:50;;;;;;;1.17;0.22;;;;;;;22.95;46.47;101301.75;7401896;19;20007;-58
2022/07/20 11:23:20;;;;;;;2.58;0.95;;;;;;;22.78;46.89;101302.69;7399084;19;20014;-59
2022/07/20 11:29:45;;;;;;;0.60;0.60;;;;;;;22.68;47.38;101318.50;7403419;19;20010;-58
2022/07/20 11:32:27;;;;;;;1.25;0.40;;;;;;;22.57;47.71;101328.19;7402275;19;20011;-58
2022/07/20 11:41:44;;;;;;;0.38;0.20;;;;;;;22.50;48.00;101331.88;7399122;19;20010;-59
2022/07/20 11:44:18;;;;;;;0.57;0.20;;;;;;;22.51;47.46;101330.66;7402239;19;20029;-58
2022/07/20 11:46:48;;;;;;;1.40;0.60;;;;;;;22.62;47.57;101324.94;7403725;19;20491;-59
2022/07/20 11:49:18;;;;;;;0.28;0.28;;;;;;;22.78;47.61;101306.31;7401912;19;20022;-59
2022/07/20 11:52:01;;;;;;;1.95;0.40;;;;;;;22.99;46.76;101319.44;7403930;19;20006;-59
2022/07/20 11:58:03;;;;;;;0.30;0.20;;;;;;;23.58;46.05;101314.47;7400660;19;20003;-58
2022/07/20 12:01:08;;;;;;;0.57;0.20;;;;;;;23.76;44.83;101314.28;7401868;19;20022;-59
2022/07/20 12:10:50;;;;;;;1.48;0.50;;;;;;;23.25;45.90;101316.00;7403793;19;20027;-59
2022/07/20 12:13:50;;;;;;;0.88;0.40;;;;;;;22.81;45.85;101322.44;7404684;19;20014;-59
2022/07/20 12:20:08;;;;;;;1.17;0.47;;;;;;;22.62;45.77;101331.41;7399308;19;20018;-58
2022/07/20 12:26:02;;;;;;;1.98;1.77;;;;;;;22.35;46.40;101336.78;7394689;19;20074;-58
2022/07/20 12:29:11;;;;;;;1.58;0.73;;;;;;;22.47;47.47;101332.72;7396372;19;20099;-58
2022/07/20 12:31:39;;;;;;;1.45;0.88;;;;;;;22.56;47.17;101338.69;7399203;19;20544;-59
2022/07/20 12:45:26;;;;;;;1.95;0.30;;;;;;;22.90;45.99;101338.91;7399370;19;20002;-58
2022/07/20 12:47:53;;;;;;;2.05;0.40;;;;;;;22.82;46.29;101343.00;7400811;19;20351;-58
2022/07/20 12:50:53;;;;;;;3.60;1.77;;;;;;;22.80;46.27;101331.28;7399736;19;20073;-58
2022/07/20 13:04:13;;;;;;;1.98;0.28;;;;;;;23.09;45.29;101343.97;7398616;19;20006;-58
2022/07/20 13:06:43;;;;;;;2.22;1.02;;;;;;;23.05;45.00;101343.22;7396813;19;20013;-58
2022/07/20 13:09:11;;;;;;;0.57;0.30;;;;;;;23.09;45.19;101349.63;7398215;19;20007;-58
2022/07/20 13:11:40;;;;;;;2.47;0.80;;;;;;;23.20;45.32;101360.84;7399538;19;20010;-59
2022/07/20 13:14:14;;;;;;;0.40;0.20;;;;;;;23.05;44.22;101354.50;7399883;19;20002;-59
2022/07/20 13:16:53;;;;;;;0.88;0.15;;;;;;;22.99;44.11;101350.53;7397408;19;20011;-58
2022/07/20 13:23:02;;;;;;;1.10;0.53;;;;;;;23.18;44.29;101351.97;7397814;19;20011;-59
2022/07/20 13:33:01;;;;;;;1.92;0.20;;;;;;;23.21;42.78;101362.44;7401063;19;20496;-59
2022/07/20 13:35:49;;;;;;;0.30;0.30;;;;;;;23.00;43.23;101364.25;7401853;19;20330;-59
2022/07/20 13:38:38;;;;;;;0.40;0.25;;;;;;;23.01;43.56;101362.19;7398685;19;20069;-59
2022/07/20 13:41:26;;;;;;;1.63;0.20;;;;;;;23.12;43.80;101365.75;7400920;19;20017;-58
2022/07/20 13:44:14;;;;;;;0.40;0.20;;;;;;;23.20;44.06;101372.13;7400873;19;20070;-58
2022/07/20 13:47:02;;;;;;;2.33;0.63;;;;;;;23.18;43.41;101369.75;7401145;19;20017;-59
2022/07/20 13:57:00;;;;;;;0.93;0.50;;;;;;;23.22;43.68;101381.78;7397661;19;20014;-58
2022/07/20 13:59:55;;;;;;;1.83;0.50;;;;;;;23.18;43.34;101383.88;7397160;19;20007;-58
2022/07/20 14:05:59;;;;;;;1.45;0.22;;;;;;;23.15;44.40;101381.88;7398757;19;20073;-59
2022/07/20 14:08:48;;;;;;;1.65;0.30;;;;;;;23.23;44.05;101382.59;7399834;19;20014;-58
2022/07/20 14:15:43;;;;;;;0.60;0.30;;;;;;;23.33;43.82;101391.00;7400227;19;20014;-59
2022/07/20 14:18:11;;;;;;;0.73;0.10;;;;;;;23.38;43.76;101387.75;7397759;19;20011;-58
2022/07/20 14:20:39;;;;;;;2.00;0.30;;;;;;;23.38;43.87;101401.06;7396858;19;20495;-57
2022/07/20 14:23:47;;;;;;;0.82;0.70;;;;;;;23.17;44.35;101396.38;7398765;19;20022;-57
2022/07/20 14:26:39;;;;;;;1.65;1.55;;;;;;;23.19;44.12;101398.81;7397516;19;20096;-59
2022/07/20 14:29:28;;;;;;;3.35;0.77;;;;;;;23.19;44.55;101399.59;7396928;19;20018;-58
2022/07/20 14:36:02;;;;;;;1.00;0.10;;;;;;;23.13;44.08;101395.59;7409425;19;20538;-59
2022/07/20 14:38:29;;;;;;;2.28;0.50;;;;;;;23.21;43.69;101408.47;7409726;19;20018;-59
2022/07/20 14:40:57;;;;;;;0.22;0.20;;;;;;;23.31;44.19;101412.41;7410040;19;20018;-59
2022/07/20 14:47:01;;;;;;;2.28;0.57;;;;;;;23.72;43.82;101409.66;7407668;19;20011;-60
2022/07/20 14:49:53;;;;;;;3.85;0.60;;;;;;;23.87;43.23;101399.81;7403155;19;20014;-60
2022/07/20 15:06:14;;;;;;;2.30;0.82;;;;;;;23.23;44.41;101428.63;7402896;19;20469;-60
2022/07/20 15:08:42;;;;;;;1.40;0.88;;;;;;;23.13;44.77;101428.69;7408113;19;20044;-59
2022/07/20 15:17:59;;;;;;;1.67;0.60;;;;;;;22.82;45.67;101442.59;7404726;19;20019;-59
2022/07/20 15:27:22;;;;;;;1.35;0.30;;;;;;;22.83;46.14;101438.56;7407746;19;20472;-58
2022/07/20 15:29:49;;;;;;;1.42;0.55;;;;;;;22.91;46.33;101442.16;7258737;19;2877971;-60
2022/07/20 15:32:17;;;;;;;2.30;0.85;;;;;;;22.97;45.95;101437.69;7408922;19;20021;-59
2022/07/20 15:34:45;;;;;;;3.08;1.98;;;;;;;23.00;46.10;101442.50;7409436;19;20017;-58
2022/07/20 15:37:13;;;;;;;0.73;0.40;;;;;;;22.94;45.83;101433.66;7411946;19;20472;-58
2022/07/20 15:39:41;;;;;;;0.95;0.30;;;;;;;22.88;46.00;101443.78;7409750;19;20006;-59
2022/07/20 15:42:32;;;;;;;2.40;0.30;;;;;;;22.88;44.94;101443.78;7396461;19;20013;-59
2022/07/20 15:45:07;;;;;;;1.35;0.40;;;;;;;23.03;45.32;101442.47;7403809;19;20514;-59
2022/07/20 15:47:37;;;;;;;1.08;0.47;;;;;;;23.24;45.47;101441.53;7399182;19;20007;-59
2022/07/20 15:50:06;;;;;;;0.75;0.38;;;;;;;23.37;45.07;101442.69;7403575;19;20080;-59
2022/07/20 15:57:18;;;;;;;0.60;0.40;;;;;;;23.37;44.40;101439.84;7404900;19;20006;-58
2022/07/20 15:59:31;;;;;;;3.15;0.65;;;;;;;23.24;44.35;101450.00;7400253;19;20018;-58
2022/07/20 16:01:58;;;;;;;0.40;0.32;;;;;;;23.21;44.86;101447.22;7398470;19;20372;-58
2022/07/20 16:07:55;;;;;;;1.00;0.80;;;;;;;23.09;44.22;101448.50;7398782;19;20007;-59
2022/07/20 16:10:28;;;;;;;6.32;1.85;;;;;;;22.92;44.45;101440.94;7400389;19;20034;-60
2022/07/20 16:12:55;;;;;;;2.03;1.10;;;;;;;22.86;44.84;101453.88;7401402;19;20479;-58
2022/07/20 16:15:23;;;;;;;1.70;0.60;;;;;;;22.83;45.38;101454.69;7400131;19;20468;-57
2022/07/20 16:17:51;;;;;;;3.13;0.70;;;;;;;22.65;45.17;101454.81;7402024;19;20014;-60
2022/07/20 16:20:19;;;;;;;0.77;0.60;;;;;;;22.56;45.49;101462.09;7400784;19;20011;-58
2022/07/20 16:22:56;;;;;;;2.45;0.70;;;;;;;22.49;46.19;101462.09;7398542;19;20071;-58
2022/07/20 16:26:02;;;;;;;3.60;1.55;;;;;;;22.39;46.28;101463.75;7396627;19;20057;-59
2022/07/20 16:28:31;;;;;;;2.25;1.13;;;;;;;22.38;46.11;101471.41;7402029;19;20017;-57
2022/07/20 16:30:59;;;;;;;2.03;1.35;;;;;;;22.32;46.08;101458.94;7399119;19;20015;-54
2022/07/20 16:34:18;;;;;;;2.85;1.63;;;;;;;22.24;46.67;101473.47;7402657;19;20002;-53
2022/07/20 16:40:11;;;;;;;4.13;0.20;;;;;;;22.13;46.45;101472.69;7398511;19;20400;-49
2022/07/20 16:54:06;;;;;;;1.17;0.65;;;;;;;22.26;45.41;101474.69;7395369;19;20010;-53
2022/07/20 16:57:15;;;;;;;1.48;0.68;;;;;;;22.31;45.49;101479.91;7402608;19;20480;-51
2022/07/20 16:59:43;;;;;;;2.90;0.70;;;;;;;22.29;45.61;101485.13;7401356;19;20011;-49
2022/07/20 17:05:52;;;;;;;1.02;0.50;;;;;;;22.32;45.70;101478.69;7400571;19;20011;-51
2022/07/20 17:08:20;;;;;;;3.97;0.65;;;;;;;22.38;45.52;101479.88;7398047;19;20002;-51
2022/07/20 17:14:12;;;;;;;1.05;0.60;;;;;;;22.34;45.98;101479.09;7400134;19;20010;-49
2022/07/20 17:20:11;;;;;;;1.93;1.23;;;;;;;22.37;45.58;101480.28;7398259;19;20010;-49
2022/07/20 17:22:39;;;;;;;3.67;0.90;;;;;;;22.36;45.44;101490.78;7400599;19;20081;-53
2022/07/20 17:25:07;;;;;;;2.65;0.65;;;;;;;22.39;45.49;101498.44;7400214;19;20024;-52
2022/07/20 17:31:07;;;;;;;3.17;2.47;;;;;;;22.25;44.42;101498.44;7392615;19;20468;-49
2022/07/20 17:45:09;;;;;;;1.52;1.27;;;;;;;21.83;45.49;101506.94;7392050;19;20006;-61
2022/07/20 17:51:58;;;;;;;2.83;1.67;;;;;;;21.95;45.65;101498.09;7400889;19;20065;-60
2022/07/20 17:54:46;;;;;;;5.47;2.03;;;;;;;22.01;46.15;101504.94;7396788;19;20092;-60
2022/07/20 17:57:34;;;;;;;4.50;1.55;;;;;;;22.03;46.27;101508.16;7399779;19;20468;-61
2022/07/20 18:00:22;;;;;;;2.47;0.55;;;;;;;22.01;45.90;101504.13;7399402;19;20010;-61
2022/07/20 18:03:11;;;;;;;1.17;0.75;;;;;;;22.04;46.26;101509.78;7395801;19;20007;-60
2022/07/20 18:05:39;;;;;;;1.85;0.82;;;;;;;21.96;46.16;101508.16;7397022;19;20014;-49
2022/07/20 18:11:48;;;;;;;6.18;2.25;;;;;;;22.07;46.18;101508.97;7394699;19;20011;-46
2022/07/20 18:18:25;;;;;;;5.90;2.30;;;;;;;22.02;46.00;101512.19;7399129;19;20353;-60
2022/07/20 18:20:53;;;;;;;4.22;1.73;;;;;;;22.11;45.96;101521.03;7395109;19;20376;-60
2022/07/20 18:23:20;;;;;;;2.20;1.63;;;;;;;22.15;45.33;101521.84;7399249;19;20037;-59
2022/07/20 18:36:35;;;;;;;3.50;2.25;;;;;;;22.08;45.01;101538.75;7398247;19;19998;-60
2022/07/20 18:39:23;;;;;;;1.45;0.70;;;;;;;21.98;45.14;101539.59;7399528;19;20031;-48
2022/07/20 18:42:11;;;;;;;1.27;1.00;;;;;;;21.93;45.21;101548.44;7392774;19;20007;-50
2022/07/20 18:45:00;;;;;;;1.17;0.65;;;;;;;21.92;45.51;101549.69;7398554;19;20081;-47
2022/07/20 18:47:48;;;;;;;0.70;0.40;;;;;;;21.80;45.31;101553.66;7392227;19;20405;-60
2022/07/20 18:50:16;;;;;;;1.55;0.25;;;;;;;21.77;45.86;101556.47;7398038;19;20017;-61
2022/07/20 18:52:43;;;;;;;0.40;0.20;;;;;;;21.72;46.06;101559.69;7397829;19;20010;-61
2022/07/20 18:55:26;;;;;;;1.35;0.50;;;;;;;21.60;45.76;101565.72;7393790;19;20010;-61
2022/07/20 18:58:15;;;;;;;0.80;0.38;;;;;;;21.56;46.09;101562.09;7398210;19;20057;-61
2022/07/20 19:01:03;;;;;;;1.00;0.30;;;;;;;21.53;46.23;101568.53;7394063;19;20021;-60
2022/07/20 19:03:52;;;;;;;2.28;0.77;;;;;;;21.51;46.15;101568.13;7391636;19;20029;-61
2022/07/20 19:06:20;;;;;;;2.25;0.70;;;;;;;21.47;46.13;101564.50;7395183;19;20040;-61
2022/07/20 19:32:48;;;;;;;0.90;0.80;;;;;;;21.13;46.70;101590.16;7400865;19;20463;-58
2022/07/20 19:42:43;;;;;;;1.88;0.90;;;;;;;20.82;47.54;101607.69;7401910;19;20468;-57
2022/07/20 19:45:11;;;;;;;3.85;1.42;;;;;;;20.81;47.85;101608.88;7402314;19;20011;-58
2022/07/20 19:54:36;;;;;;;0.90;0.85;;;;;;;20.55;48.05;101609.13;7394840;19;20010;-59
2022/07/20 20:08:33;;;;;;;2.42;0.80;;;;;;;20.38;48.94;101621.06;7399358;19;20006;-46
2022/07/20 20:11:00;;;;;;;2.80;0.32;;;;;;;20.40;48.71;101624.28;7396723;19;20037;-47
2022/07/20 20:13:28;;;;;;;2.15;0.68;;;;;;;20.40;48.62;101618.66;7398417;19;20006;-48
2022/07/20 20:16:45;;;;;;;9.15;0.95;;;;;;;20.23;48.98;101622.09;7400884;19;20475;-48
2022/07/20 20:19:34;;;;;;;2.55;0.40;;;;;;;20.17;48.85;101637.75;7402863;19;20014;-52
2022/07/20 20:26:24;;;;;;;1.30;0.52;;;;;;;19.96;49.58;101647.59;7396863;19;20038;-50